Time;durP1;ratioP1;P1;durP2;ratioP2;P2;SDS_P1;SDS_P2;PMS_P1;PMS_P2;Temp;Humidity;BMP_temperature;BMP_pressure;BME280_temperature;BME280_humidity;BME280_pressure;Samples;Min_cycle;Max_cycle;Signal;HPM_P1;HPM_P2
2021/09/10 00:01:14;;;;;;;6.40;5.03;;;22.40;96.70;;;;;;4958330;28;20046;-76
2021/09/10 00:03:42;;;;;;;6.00;4.95;;;22.30;96.70;;;;;;4965926;28;20078;-76
2021/09/10 00:06:10;;;;;;;5.95;5.07;;;22.40;96.70;;;;;;4960927;28;20052;-76
2021/09/10 00:08:39;;;;;;;5.90;4.53;;;22.40;96.70;;;;;;4956641;28;20524;-76
2021/09/10 00:11:09;;;;;;;7.05;5.35;;;22.30;96.70;;;;;;4959684;28;20088;-76
2021/09/10 00:13:37;;;;;;;5.53;4.80;;;22.20;96.70;;;;;;4957346;28;20500;-76
2021/09/10 00:16:05;;;;;;;5.72;4.63;;;22.20;96.70;;;;;;4958580;28;20413;-76
2021/09/10 00:18:34;;;;;;;5.60;5.03;;;22.10;96.70;;;;;;4972495;28;20516;-76
2021/09/10 00:21:02;;;;;;;4.88;4.25;;;22.00;96.70;;;;;;4965115;28;20414;-76
2021/09/10 00:23:30;;;;;;;6.00;4.60;;;22.00;96.70;;;;;;4962456;28;20042;-76
2021/09/10 00:26:00;;;;;;;5.22;4.40;;;22.00;96.70;;;;;;4961754;28;20045;-76
2021/09/10 00:28:29;;;;;;;6.03;4.88;;;22.00;96.70;;;;;;4965984;28;20042;-75
2021/09/10 00:30:58;;;;;;;5.78;4.82;;;22.00;96.70;;;;;;4960438;28;20043;-76
2021/09/10 00:33:26;;;;;;;5.72;5.20;;;21.90;96.70;;;;;;4965796;28;20468;-76
2021/09/10 00:35:55;;;;;;;5.70;5.10;;;21.90;96.70;;;;;;4955424;28;20047;-76
2021/09/10 00:38:24;;;;;;;8.77;5.05;;;21.90;96.70;;;;;;4958707;28;20047;-76
2021/09/10 00:40:52;;;;;;;6.18;5.15;;;21.90;96.70;;;;;;4958423;28;20051;-76
2021/09/10 00:43:20;;;;;;;6.15;5.00;;;21.70;96.70;;;;;;4962271;28;20145;-76
2021/09/10 00:45:50;;;;;;;5.15;4.63;;;21.60;96.70;;;;;;4959203;28;20050;-76
2021/09/10 00:48:21;;;;;;;6.45;5.22;;;21.50;96.70;;;;;;4956696;28;20078;-76
2021/09/10 00:50:50;;;;;;;10.70;5.00;;;21.60;96.70;;;;;;4959979;28;20114;-76
2021/09/10 00:53:18;;;;;;;5.70;4.63;;;21.60;96.70;;;;;;4962469;28;20035;-76
2021/09/10 00:55:47;;;;;;;7.40;5.32;;;21.70;96.70;;;;;;4962073;28;20054;-75
2021/09/10 00:58:15;;;;;;;5.97;5.47;;;21.60;96.70;;;;;;4962648;28;20059;-75
2021/09/10 01:00:44;;;;;;;7.03;5.53;;;21.70;96.70;;;;;;4962368;28;20048;-76
2021/09/10 01:03:14;;;;;;;5.70;5.10;;;21.70;96.70;;;;;;4943301;28;20043;-75
2021/09/10 01:05:43;;;;;;;6.40;5.70;;;21.60;96.70;;;;;;4957394;28;20051;-76
2021/09/10 01:08:12;;;;;;;6.53;5.63;;;21.60;96.70;;;;;;4974569;28;20050;-76
2021/09/10 01:10:41;;;;;;;6.63;5.90;;;21.70;96.70;;;;;;4961780;28;20042;-75
2021/09/10 01:13:10;;;;;;;7.93;5.70;;;21.70;96.70;;;;;;4961397;28;20085;-76
2021/09/10 01:15:38;;;;;;;5.82;5.03;;;21.60;96.70;;;;;;4976652;28;20501;-76
2021/09/10 01:18:06;;;;;;;5.22;4.80;;;21.50;96.70;;;;;;4963188;28;20057;-76
2021/09/10 01:20:36;;;;;;;5.40;4.90;;;21.40;96.70;;;;;;4958696;28;20506;-76
2021/09/10 01:23:04;;;;;;;5.47;4.97;;;21.40;96.70;;;;;;4952939;28;20054;-76
2021/09/10 01:25:34;;;;;;;5.30;4.90;;;21.50;96.70;;;;;;4963511;28;20046;-74
2021/09/10 01:28:03;;;;;;;5.72;5.15;;;21.50;96.70;;;;;;4976469;28;20078;-75
2021/09/10 01:30:34;;;;;;;5.13;4.72;;;21.50;96.70;;;;;;4958232;28;20051;-74
2021/09/10 01:33:08;;;;;;;5.07;4.57;;;21.50;96.70;;;;;;4959602;28;20050;-74
2021/09/10 01:35:37;;;;;;;5.95;5.28;;;21.60;96.70;;;;;;4964395;28;20568;-74
2021/09/10 01:38:07;;;;;;;5.35;4.85;;;21.50;96.70;;;;;;4961197;28;20434;-75
2021/09/10 01:40:37;;;;;;;5.38;4.65;;;21.50;96.70;;;;;;4978886;28;20058;-74
2021/09/10 01:43:06;;;;;;;6.13;5.15;;;21.40;96.70;;;;;;4954478;28;20527;-74
2021/09/10 01:45:34;;;;;;;5.40;4.88;;;21.20;96.70;;;;;;4957621;28;20050;-74
2021/09/10 01:48:03;;;;;;;7.22;5.65;;;21.20;96.70;;;;;;4959826;28;20501;-74
2021/09/10 01:50:31;;;;;;;5.53;5.03;;;21.30;96.70;;;;;;4968584;28;20215;-75
2021/09/10 01:52:59;;;;;;;5.65;4.97;;;21.30;96.70;;;;;;4969070;28;20054;-74
2021/09/10 01:55:30;;;;;;;5.93;5.10;;;21.30;96.70;;;;;;4960217;28;20288;-75
2021/09/10 01:58:00;;;;;;;7.40;5.68;;;21.20;96.70;;;;;;4945682;28;20043;-74
2021/09/10 02:00:28;;;;;;;6.80;4.97;;;21.20;96.70;;;;;;4962893;28;20138;-74
2021/09/10 02:02:57;;;;;;;5.05;4.55;;;21.10;96.70;;;;;;4966077;28;20517;-74
2021/09/10 02:05:26;;;;;;;5.35;4.85;;;21.10;96.70;;;;;;4964501;28;20105;-75
2021/09/10 02:07:54;;;;;;;5.65;5.15;;;21.00;96.70;;;;;;4962367;28;20047;-74
2021/09/10 02:10:22;;;;;;;6.47;5.78;;;21.10;96.70;;;;;;4966434;28;20106;-75
2021/09/10 02:12:50;;;;;;;5.72;5.22;;;21.00;96.70;;;;;;4963535;28;20097;-74
2021/09/10 02:15:20;;;;;;;5.68;5.13;;;21.00;96.70;;;;;;4960109;28;20074;-74
2021/09/10 02:17:48;;;;;;;6.05;5.38;;;21.00;96.70;;;;;;4964694;28;20396;-74
2021/09/10 02:20:16;;;;;;;8.25;5.07;;;21.00;96.70;;;;;;4961752;28;20409;-74
2021/09/10 02:22:44;;;;;;;6.13;5.50;;;20.90;96.70;;;;;;4963596;28;20449;-74
2021/09/10 02:25:13;;;;;;;6.00;5.45;;;20.90;96.70;;;;;;4960882;28;20307;-75
2021/09/10 02:27:41;;;;;;;6.28;5.72;;;20.90;96.70;;;;;;4966183;28;20558;-74
2021/09/10 02:30:10;;;;;;;6.05;5.47;;;20.90;96.70;;;;;;4966124;28;20089;-75
2021/09/10 02:32:39;;;;;;;6.18;5.43;;;20.80;96.70;;;;;;4963664;28;20413;-75
2021/09/10 02:35:08;;;;;;;6.32;5.53;;;20.70;96.70;;;;;;4972163;28;20560;-74
2021/09/10 02:37:36;;;;;;;8.38;6.60;;;20.70;96.70;;;;;;4964145;28;20085;-74
2021/09/10 02:40:06;;;;;;;7.60;5.50;;;20.60;96.70;;;;;;4958641;28;20035;-74
2021/09/10 02:42:34;;;;;;;6.10;5.28;;;20.50;96.70;;;;;;4961886;28;20047;-75
2021/09/10 02:45:03;;;;;;;8.05;6.03;;;20.50;96.70;;;;;;4961979;28;20501;-74
2021/09/10 02:47:31;;;;;;;6.00;5.40;;;20.60;96.70;;;;;;4976164;28;20501;-75
2021/09/10 02:50:00;;;;;;;6.25;5.63;;;20.60;96.70;;;;;;4964169;28;20182;-74
2021/09/10 02:52:29;;;;;;;6.68;6.03;;;20.50;96.70;;;;;;4962534;28;20057;-74
2021/09/10 02:54:58;;;;;;;5.65;5.18;;;20.50;96.70;;;;;;4949010;28;20051;-75
2021/09/10 02:57:26;;;;;;;6.10;5.28;;;20.50;96.70;;;;;;4960181;28;20126;-74
2021/09/10 02:59:55;;;;;;;5.93;5.43;;;20.50;96.70;;;;;;4965038;28;20502;-74
2021/09/10 03:02:25;;;;;;;8.25;5.82;;;20.50;96.70;;;;;;4963469;28;20090;-74
2021/09/10 03:04:54;;;;;;;7.88;5.57;;;20.50;96.70;;;;;;4961039;28;20130;-74
2021/09/10 03:07:24;;;;;;;6.15;5.00;;;20.40;96.70;;;;;;4965120;28;20047;-74
2021/09/10 03:09:52;;;;;;;5.72;5.22;;;20.60;96.70;;;;;;4968278;28;20150;-74
2021/09/10 03:12:20;;;;;;;7.40;5.65;;;20.50;96.70;;;;;;4965086;28;20053;-74
2021/09/10 03:14:48;;;;;;;6.35;5.25;;;20.30;96.70;;;;;;4956979;28;20047;-75
2021/09/10 03:17:16;;;;;;;7.25;5.43;;;20.20;96.70;;;;;;4957700;28;20034;-74
2021/09/10 03:19:44;;;;;;;5.90;5.30;;;20.30;96.70;;;;;;4974525;28;20413;-74
2021/09/10 03:22:12;;;;;;;5.82;5.25;;;20.40;96.70;;;;;;4958575;28;20046;-74
2021/09/10 03:24:42;;;;;;;5.75;5.20;;;20.40;96.70;;;;;;4959563;28;20129;-74
2021/09/10 03:27:10;;;;;;;5.50;4.68;;;20.20;96.70;;;;;;4964315;28;20133;-74
2021/09/10 03:29:38;;;;;;;5.70;5.10;;;20.30;96.70;;;;;;4963251;28;20065;-75
2021/09/10 03:32:07;;;;;;;8.63;5.20;;;20.30;96.70;;;;;;4963503;28;20043;-75
2021/09/10 03:34:35;;;;;;;6.57;4.80;;;20.20;96.70;;;;;;4964432;28;20046;-74
2021/09/10 03:37:04;;;;;;;5.32;4.65;;;20.30;96.70;;;;;;4948876;28;20150;-75
2021/09/10 03:39:33;;;;;;;7.15;5.13;;;20.30;96.70;;;;;;4962510;28;20050;-75
2021/09/10 03:42:03;;;;;;;5.15;4.65;;;20.20;96.70;;;;;;4966360;28;20485;-74
2021/09/10 03:44:31;;;;;;;6.82;5.20;;;20.20;96.70;;;;;;4959903;28;20085;-75
2021/09/10 03:46:59;;;;;;;5.50;5.00;;;20.30;96.70;;;;;;4961870;28;20486;-74
2021/09/10 03:49:27;;;;;;;6.72;5.30;;;20.40;96.70;;;;;;4956353;28;20605;-74
2021/09/10 03:51:55;;;;;;;5.65;5.05;;;20.40;96.70;;;;;;4962163;28;20043;-74
2021/09/10 03:54:24;;;;;;;6.65;6.00;;;20.40;96.70;;;;;;4959187;28;20493;-75
2021/09/10 03:56:52;;;;;;;6.63;5.30;;;20.30;96.70;;;;;;4962549;28;20528;-75
2021/09/10 03:59:22;;;;;;;8.40;5.70;;;20.20;96.70;;;;;;4943867;28;20050;-75
2021/09/10 04:01:50;;;;;;;7.07;5.90;;;20.00;96.70;;;;;;4975105;28;20046;-74
2021/09/10 04:04:19;;;;;;;6.57;5.07;;;20.00;96.70;;;;;;4960422;28;20030;-75
2021/09/10 04:06:47;;;;;;;5.80;5.25;;;19.90;96.70;;;;;;4961296;28;20524;-74
2021/09/10 04:09:16;;;;;;;6.22;5.25;;;19.90;96.70;;;;;;4961737;28;20105;-74
2021/09/10 04:11:44;;;;;;;6.97;5.50;;;20.00;96.70;;;;;;4944040;28;20098;-74
2021/09/10 04:14:13;;;;;;;6.03;5.28;;;19.90;96.70;;;;;;4965617;28;20161;-75
2021/09/10 04:16:43;;;;;;;6.57;5.32;;;19.90;96.70;;;;;;4961724;28;20509;-74
2021/09/10 04:19:11;;;;;;;6.00;5.18;;;20.00;96.70;;;;;;4959823;28;20101;-75
2021/09/10 04:21:39;;;;;;;5.82;5.30;;;20.00;96.70;;;;;;4945208;28;20133;-74
2021/09/10 04:24:07;;;;;;;6.38;5.57;;;20.00;96.70;;;;;;4956131;28;20045;-74
2021/09/10 04:26:35;;;;;;;6.65;5.53;;;20.10;96.70;;;;;;4967864;28;20058;-75
2021/09/10 04:29:04;;;;;;;6.93;5.93;;;20.10;96.70;;;;;;4962171;28;20047;-75
2021/09/10 04:31:32;;;;;;;6.13;5.53;;;20.10;96.70;;;;;;4959935;28;20048;-74
2021/09/10 04:34:02;;;;;;;5.85;5.15;;;19.90;96.70;;;;;;4961107;28;20034;-74
2021/09/10 04:36:30;;;;;;;5.97;5.40;;;19.70;96.70;;;;;;4937414;28;20051;-74
2021/09/10 04:38:58;;;;;;;7.38;5.15;;;19.60;96.70;;;;;;4948197;28;20046;-75
2021/09/10 04:41:28;;;;;;;6.53;5.90;;;19.80;96.70;;;;;;4958367;28;20057;-74
2021/09/10 04:43:57;;;;;;;6.55;5.25;;;19.80;96.70;;;;;;4961359;28;20046;-74
2021/09/10 04:46:25;;;;;;;7.32;5.95;;;19.80;96.70;;;;;;4958339;28;20046;-75
2021/09/10 04:48:53;;;;;;;7.35;5.50;;;19.80;96.70;;;;;;4964848;28;20050;-74
2021/09/10 04:51:23;;;;;;;6.20;5.60;;;19.70;96.70;;;;;;4946453;28;20046;-75
2021/09/10 04:53:51;;;;;;;7.13;5.53;;;19.70;96.70;;;;;;4964290;28;20049;-74
2021/09/10 04:56:19;;;;;;;8.82;6.05;;;19.60;96.70;;;;;;4958967;28;20039;-74
2021/09/10 04:58:49;;;;;;;7.25;5.68;;;19.60;96.70;;;;;;4941614;28;20460;-74
2021/09/10 05:01:17;;;;;;;8.73;6.32;;;19.60;96.70;;;;;;4958334;28;20073;-74
2021/09/10 05:03:46;;;;;;;11.70;6.43;;;19.60;96.70;;;;;;4963529;28;20046;-74
2021/09/10 05:06:15;;;;;;;6.90;5.40;;;19.40;96.70;;;;;;4959787;28;20050;-75
2021/09/10 05:08:44;;;;;;;7.03;5.45;;;19.40;96.70;;;;;;4960568;28;20078;-74
2021/09/10 05:11:12;;;;;;;7.00;5.70;;;19.30;96.70;;;;;;4963723;28;20047;-74
2021/09/10 05:13:40;;;;;;;7.60;5.60;;;19.40;96.70;;;;;;4945691;28;20420;-75
2021/09/10 05:16:09;;;;;;;8.63;6.22;;;19.40;96.70;;;;;;4946870;28;20528;-74
2021/09/10 05:18:37;;;;;;;10.77;6.82;;;19.40;96.70;;;;;;4952372;28;20069;-75
2021/09/10 05:21:05;;;;;;;8.68;5.63;;;19.30;96.70;;;;;;4960670;28;20042;-74
2021/09/10 05:23:34;;;;;;;11.43;5.85;;;19.30;96.70;;;;;;4956243;28;20034;-74
2021/09/10 05:26:04;;;;;;;9.98;6.25;;;19.30;96.70;;;;;;4958724;28;20051;-74
2021/09/10 05:28:32;;;;;;;6.72;6.07;;;19.20;96.70;;;;;;4957873;28;20042;-75
2021/09/10 05:31:00;;;;;;;9.73;6.85;;;19.30;96.70;;;;;;4961916;28;20030;-74
2021/09/10 05:33:28;;;;;;;9.88;6.22;;;19.30;96.70;;;;;;4962635;28;20053;-74
2021/09/10 05:35:56;;;;;;;7.30;6.00;;;19.40;96.70;;;;;;4962503;28;20053;-75
2021/09/10 05:38:25;;;;;;;7.88;6.30;;;19.40;96.70;;;;;;4968379;28;20398;-74
2021/09/10 05:40:55;;;;;;;7.57;6.20;;;19.60;96.70;;;;;;4962898;28;20166;-75
2021/09/10 05:43:24;;;;;;;8.30;6.35;;;19.60;96.70;;;;;;4951764;28;20138;-74
2021/09/10 05:45:52;;;;;;;7.63;6.10;;;19.40;96.70;;;;;;4961840;28;20046;-74
2021/09/10 05:48:21;;;;;;;13.43;6.63;;;19.50;96.70;;;;;;4959709;28;20050;-75
2021/09/10 05:50:51;;;;;;;11.20;6.82;;;19.60;96.70;;;;;;4976312;28;20082;-74
2021/09/10 05:53:19;;;;;;;7.75;6.72;;;19.80;96.70;;;;;;4945211;28;20050;-74
2021/09/10 05:55:47;;;;;;;10.13;6.65;;;19.80;96.70;;;;;;4962813;28;20051;-75
2021/09/10 05:58:15;;;;;;;7.10;6.40;;;19.80;96.70;;;;;;4957664;28;20043;-75
2021/09/10 06:00:45;;;;;;;7.90;6.50;;;19.80;96.70;;;;;;4961313;28;20049;-75
2021/09/10 06:03:13;;;;;;;7.70;6.10;;;19.80;96.70;;;;;;4957240;28;20131;-74
2021/09/10 06:05:41;;;;;;;7.40;6.70;;;19.90;96.70;;;;;;4947227;28;20130;-75
2021/09/10 06:08:09;;;;;;;9.45;6.55;;;19.90;96.70;;;;;;4962392;28;20106;-75
2021/09/10 06:10:38;;;;;;;11.15;7.00;;;20.00;96.70;;;;;;4962186;28;20409;-75
2021/09/10 06:13:06;;;;;;;8.50;6.28;;;20.00;96.70;;;;;;4957789;28;20052;-74
2021/09/10 06:15:34;;;;;;;9.07;6.50;;;20.20;96.70;;;;;;4964716;28;20058;-74
2021/09/10 06:18:04;;;;;;;8.23;7.18;;;20.30;96.70;;;;;;4958958;28;20138;-74
2021/09/10 06:20:32;;;;;;;11.77;7.38;;;20.40;96.70;;;;;;4953602;28;20589;-74
2021/09/10 06:23:00;;;;;;;8.25;6.85;;;20.40;96.70;;;;;;4955360;28;20070;-75
2021/09/10 06:25:28;;;;;;;8.35;6.53;;;20.40;96.70;;;;;;4963534;28;20035;-75
2021/09/10 06:27:57;;;;;;;10.50;6.40;;;20.30;96.70;;;;;;4959776;28;20066;-75
2021/09/10 06:30:25;;;;;;;9.60;6.70;;;20.40;96.70;;;;;;4959589;28;20126;-74
2021/09/10 06:32:54;;;;;;;7.05;6.45;;;20.40;96.70;;;;;;4957429;28;20061;-75
2021/09/10 06:35:23;;;;;;;7.32;6.63;;;20.50;96.70;;;;;;4963841;28;20054;-75
2021/09/10 06:37:51;;;;;;;8.77;6.90;;;20.60;96.70;;;;;;4961968;28;20053;-75
2021/09/10 06:40:19;;;;;;;9.77;7.18;;;20.60;96.70;;;;;;4959398;28;20059;-74
2021/09/10 06:42:49;;;;;;;10.55;6.97;;;20.60;96.70;;;;;;4963534;28;20142;-75
2021/09/10 06:45:17;;;;;;;8.10;7.25;;;20.60;96.70;;;;;;4959225;28;20031;-75
2021/09/10 06:47:46;;;;;;;7.80;6.95;;;20.60;96.70;;;;;;4961795;28;20469;-74
2021/09/10 06:50:14;;;;;;;8.73;7.18;;;20.60;96.70;;;;;;4957613;28;20054;-74
2021/09/10 06:52:44;;;;;;;7.57;6.50;;;20.60;96.70;;;;;;4964318;28;20064;-75
2021/09/10 06:55:12;;;;;;;9.13;7.30;;;20.70;96.70;;;;;;4963561;28;20047;-74
2021/09/10 06:57:41;;;;;;;9.73;6.63;;;20.80;96.70;;;;;;4963733;28;20387;-75
2021/09/10 07:00:15;;;;;;;7.05;6.35;;;20.80;96.70;;;;;;4961339;28;20481;-74
2021/09/10 07:02:43;;;;;;;8.60;6.65;;;20.90;96.70;;;;;;4962660;28;20121;-75
2021/09/10 07:05:12;;;;;;;7.05;6.07;;;21.10;96.70;;;;;;4958981;28;20039;-75
2021/09/10 07:07:40;;;;;;;6.55;5.95;;;21.20;96.70;;;;;;4964254;28;20039;-74
2021/09/10 07:10:11;;;;;;;8.88;6.07;;;21.30;96.70;;;;;;4960618;28;20121;-74
2021/09/10 07:12:39;;;;;;;6.07;5.55;;;21.30;96.70;;;;;;4959169;28;20032;-74
2021/09/10 07:15:09;;;;;;;7.32;5.30;;;21.40;96.70;;;;;;4967150;28;20046;-75
2021/09/10 07:17:37;;;;;;;7.53;5.45;;;21.50;96.70;;;;;;4965782;28;20659;-75
2021/09/10 07:20:06;;;;;;;7.28;5.60;;;21.60;96.70;;;;;;4968681;28;20043;-74
2021/09/10 07:22:34;;;;;;;7.90;6.10;;;21.60;96.70;;;;;;4964035;28;20069;-74
2021/09/10 07:25:03;;;;;;;7.13;5.65;;;21.60;96.70;;;;;;4967613;28;20572;-74
2021/09/10 07:27:33;;;;;;;6.50;5.90;;;21.70;96.70;;;;;;4964222;28;20513;-75
2021/09/10 07:30:02;;;;;;;8.23;6.22;;;21.70;96.70;;;;;;4971133;28;20513;-75
2021/09/10 07:32:30;;;;;;;6.93;5.95;;;21.80;96.70;;;;;;4963269;28;20043;-75
2021/09/10 07:35:05;;;;;;;9.65;6.65;;;21.90;96.70;;;;;;4960901;28;20043;-75
2021/09/10 07:37:33;;;;;;;8.65;5.35;;;22.00;96.70;;;;;;4966225;28;20051;-75
2021/09/10 07:40:01;;;;;;;7.57;6.50;;;22.10;96.70;;;;;;4962093;28;20049;-74
2021/09/10 07:42:30;;;;;;;6.82;5.60;;;22.20;96.70;;;;;;4955560;28;20043;-75
2021/09/10 07:44:59;;;;;;;8.52;5.60;;;22.30;96.70;;;;;;4961960;28;20046;-74
2021/09/10 07:47:28;;;;;;;7.50;5.70;;;22.30;96.70;;;;;;4960629;28;20047;-74
2021/09/10 07:49:56;;;;;;;7.63;6.00;;;22.40;96.70;;;;;;4962481;28;20644;-75
2021/09/10 07:52:24;;;;;;;8.73;6.00;;;22.40;96.70;;;;;;4957011;28;20466;-75
2021/09/10 07:54:53;;;;;;;8.35;5.90;;;22.50;96.70;;;;;;4988016;28;20039;-75
2021/09/10 07:57:23;;;;;;;7.50;5.90;;;22.50;96.70;;;;;;4951253;28;20093;-75
2021/09/10 07:59:58;;;;;;;7.65;5.43;;;22.60;96.70;;;;;;4970189;28;20049;-75
2021/09/10 08:02:28;;;;;;;6.72;5.55;;;22.70;96.70;;;;;;4970992;28;20397;-75
2021/09/10 08:04:56;;;;;;;7.30;5.85;;;22.70;96.70;;;;;;4964693;28;20046;-75
2021/09/10 08:07:25;;;;;;;8.20;5.88;;;22.80;96.70;;;;;;4960445;28;20541;-75
2021/09/10 08:10:00;;;;;;;7.68;5.65;;;22.90;96.70;;;;;;4964523;28;20553;-75
2021/09/10 08:12:29;;;;;;;6.80;5.10;;;22.90;96.70;;;;;;4957499;28;20086;-75
2021/09/10 08:14:58;;;;;;;9.98;6.07;;;23.00;96.70;;;;;;4965529;28;20415;-75
2021/09/10 08:17:28;;;;;;;6.10;5.53;;;23.00;96.70;;;;;;4960463;28;20501;-75
2021/09/10 08:19:57;;;;;;;6.05;5.55;;;23.20;96.70;;;;;;4963404;28;20055;-75
2021/09/10 08:22:25;;;;;;;6.10;5.50;;;23.30;96.70;;;;;;4955808;28;20505;-75
2021/09/10 08:24:56;;;;;;;7.15;5.38;;;23.40;96.70;;;;;;4969602;28;20042;-75
2021/09/10 08:27:25;;;;;;;6.50;5.07;;;23.40;96.70;;;;;;4971337;28;20541;-75
2021/09/10 08:29:54;;;;;;;5.72;5.22;;;23.50;96.70;;;;;;4965003;28;20061;-75
2021/09/10 08:32:23;;;;;;;6.50;5.70;;;23.60;96.70;;;;;;4947492;28;20093;-75
2021/09/10 08:34:53;;;;;;;8.02;6.00;;;23.80;96.70;;;;;;4963729;28;20125;-75
2021/09/10 08:37:22;;;;;;;10.50;5.28;;;23.80;96.70;;;;;;4958881;28;20046;-75
2021/09/10 08:39:54;;;;;;;6.55;5.30;;;23.90;96.70;;;;;;4962568;28;20051;-75
2021/09/10 08:42:22;;;;;;;6.88;5.22;;;24.00;96.70;;;;;;4961202;28;20039;-75
2021/09/10 08:44:51;;;;;;;6.43;5.32;;;24.10;96.70;;;;;;4973275;28;20126;-75
2021/09/10 08:47:20;;;;;;;7.90;5.65;;;24.20;96.70;;;;;;4959004;28;20050;-75
2021/09/10 08:49:48;;;;;;;5.03;4.53;;;24.20;96.70;;;;;;4958847;28;20429;-75
2021/09/10 08:52:18;;;;;;;6.38;5.20;;;24.30;96.70;;;;;;4965270;28;20551;-75
2021/09/10 08:54:46;;;;;;;8.68;5.43;;;24.40;96.70;;;;;;4957944;28;20046;-75
2021/09/10 08:57:14;;;;;;;12.68;5.57;;;24.50;96.70;;;;;;4984703;28;20046;-75
2021/09/10 08:59:42;;;;;;;6.72;4.75;;;24.50;96.70;;;;;;4960481;28;20086;-75
2021/09/10 09:02:14;;;;;;;8.48;5.20;;;24.60;96.70;;;;;;4957887;28;20046;-75
2021/09/10 09:04:43;;;;;;;7.00;4.55;;;24.60;96.60;;;;;;4955837;28;20423;-75
2021/09/10 09:07:11;;;;;;;6.25;4.93;;;24.70;96.50;;;;;;4958735;28;20043;-75
2021/09/10 09:09:45;;;;;;;6.55;4.07;;;24.80;96.30;;;;;;4967001;28;20521;-75
2021/09/10 09:12:18;;;;;;;6.25;4.47;;;24.80;95.80;;;;;;4960729;28;20502;-75
2021/09/10 09:14:49;;;;;;;5.55;4.40;;;24.90;95.40;;;;;;4958351;28;20058;-75
2021/09/10 09:17:22;;;;;;;8.30;4.68;;;25.00;95.90;;;;;;4964430;28;20046;-75
2021/09/10 09:20:16;;;;;;;4.65;4.25;;;25.20;95.40;;;;;;4957814;28;20053;-75
2021/09/10 09:23:02;;;;;;;5.88;4.20;;;25.20;94.80;;;;;;4961409;28;20074;-75
2021/09/10 09:25:34;;;;;;;6.93;4.63;;;25.30;94.50;;;;;;4960546;28;20058;-75
2021/09/10 09:28:22;;;;;;;12.23;5.13;;;25.30;94.30;;;;;;4956201;28;20406;-75
2021/09/10 09:30:53;;;;;;;6.40;4.68;;;25.30;94.40;;;;;;4959630;28;20054;-75
2021/09/10 09:33:24;;;;;;;7.68;4.80;;;25.50;94.40;;;;;;4970190;28;20069;-75
2021/09/10 09:35:57;;;;;;;9.38;5.00;;;25.60;94.00;;;;;;4962361;28;20047;-75
2021/09/10 09:38:27;;;;;;;7.72;4.70;;;25.90;93.40;;;;;;4962791;28;20039;-75
2021/09/10 09:40:58;;;;;;;6.30;4.30;;;26.10;93.70;;;;;;4961919;28;20074;-75
2021/09/10 09:43:29;;;;;;;6.53;4.53;;;26.20;92.00;;;;;;4953049;28;20087;-75
2021/09/10 09:45:59;;;;;;;8.30;4.55;;;26.20;91.50;;;;;;4964298;28;20054;-75
2021/09/10 09:48:28;;;;;;;4.97;4.15;;;26.30;91.60;;;;;;4938195;28;20035;-74
2021/09/10 09:50:58;;;;;;;5.07;4.57;;;26.30;90.90;;;;;;4956861;28;20073;-75
2021/09/10 09:53:27;;;;;;;5.30;4.40;;;26.30;91.10;;;;;;4960356;28;20501;-74
2021/09/10 09:56:00;;;;;;;5.00;4.57;;;26.40;90.30;;;;;;4963190;28;20054;-75
2021/09/10 09:58:30;;;;;;;4.05;3.65;;;26.80;89.50;;;;;;4961565;28;20047;-75
2021/09/10 10:00:59;;;;;;;4.60;4.20;;;26.90;89.20;;;;;;4962656;28;20364;-75
2021/09/10 10:03:28;;;;;;;4.90;4.47;;;27.10;87.90;;;;;;4962317;28;20101;-75
2021/09/10 10:06:06;;;;;;;7.40;4.70;;;27.30;87.00;;;;;;4965065;28;20464;-75
2021/09/10 10:08:40;;;;;;;6.35;4.57;;;27.30;86.70;;;;;;4963458;28;20038;-75
2021/09/10 10:11:12;;;;;;;5.57;4.60;;;27.30;86.90;;;;;;4963256;28;20047;-75
2021/09/10 10:13:41;;;;;;;4.53;4.13;;;27.40;86.20;;;;;;4964199;28;20050;-75
2021/09/10 10:16:34;;;;;;;5.57;4.38;;;27.50;86.10;;;;;;4960844;28;20054;-74
2021/09/10 10:19:04;;;;;;;4.95;4.00;;;27.40;85.70;;;;;;4953802;28;20137;-75
2021/09/10 10:21:51;;;;;;;4.30;3.67;;;27.40;86.10;;;;;;4949525;28;20054;-75
2021/09/10 10:24:39;;;;;;;4.30;3.90;;;27.40;85.20;;;;;;4966105;28;20038;-75
2021/09/10 10:27:36;;;;;;;4.18;3.78;;;27.60;84.60;;;;;;4942538;28;20077;-75
2021/09/10 10:30:05;;;;;;;4.30;3.88;;;27.80;84.10;;;;;;4961088;28;20099;-75
2021/09/10 10:32:36;;;;;;;5.90;3.95;;;27.90;83.50;;;;;;4960507;28;20509;-74
2021/09/10 10:35:30;;;;;;;4.93;3.80;;;28.00;83.50;;;;;;4966064;28;20042;-75
2021/09/10 10:38:05;;;;;;;4.68;4.25;;;28.10;83.10;;;;;;4944580;28;20444;-74
2021/09/10 10:40:36;;;;;;;5.57;4.18;;;28.20;84.00;;;;;;4961588;28;20393;-75
2021/09/10 10:43:10;;;;;;;5.03;4.32;;;28.20;83.60;;;;;;4967050;28;20137;-75
2021/09/10 10:46:09;;;;;;;5.65;4.53;;;28.20;83.90;;;;;;4972917;28;20047;-75
2021/09/10 10:48:51;;;;;;;6.80;4.13;;;28.30;82.90;;;;;;4897787;29;20059;-75
2021/09/10 10:51:40;;;;;;;5.15;4.13;;;28.40;82.00;;;;;;4897826;29;20056;-75
2021/09/10 10:54:16;;;;;;;4.55;4.15;;;28.60;81.70;;;;;;4889307;29;20040;-75
2021/09/10 10:56:45;;;;;;;5.65;4.22;;;28.80;81.60;;;;;;4881312;29;20052;-75
2021/09/10 10:59:35;;;;;;;4.80;4.40;;;28.70;81.40;;;;;;4889161;29;20045;-75
2021/09/10 11:02:25;;;;;;;4.85;4.45;;;28.80;81.40;;;;;;4884747;29;20048;-75
2021/09/10 11:05:00;;;;;;;5.28;4.30;;;29.10;81.10;;;;;;4874755;29;20072;-75
2021/09/10 11:07:30;;;;;;;6.45;4.20;;;29.10;80.70;;;;;;4897631;29;20507;-75
2021/09/10 11:09:59;;;;;;;4.70;4.30;;;29.10;80.40;;;;;;4876424;29;20088;-75
2021/09/10 11:12:28;;;;;;;6.20;4.30;;;29.10;80.20;;;;;;4881826;29;20048;-75
2021/09/10 11:14:59;;;;;;;4.78;4.03;;;28.90;80.30;;;;;;4884656;29;20053;-75
2021/09/10 11:17:28;;;;;;;6.07;4.30;;;29.00;80.40;;;;;;4891560;29;21084;-75
2021/09/10 11:19:57;;;;;;;4.90;4.00;;;29.20;79.60;;;;;;4882588;29;20056;-75
2021/09/10 11:22:27;;;;;;;5.25;3.97;;;29.10;79.20;;;;;;4903182;28;20051;-74
2021/09/10 11:25:07;;;;;;;4.55;3.90;;;29.00;78.80;;;;;;4966941;28;20046;-75
2021/09/10 11:27:39;;;;;;;4.05;3.75;;;29.10;79.10;;;;;;4962009;28;20063;-75
2021/09/10 11:30:11;;;;;;;4.07;3.78;;;29.20;78.60;;;;;;4959334;28;20062;-75
2021/09/10 11:32:40;;;;;;;4.32;4.00;;;29.20;78.40;;;;;;4963555;28;20097;-75
2021/09/10 11:35:22;;;;;;;6.65;3.65;;;29.30;78.30;;;;;;4960046;28;20043;-75
2021/09/10 11:37:53;;;;;;;5.13;4.55;;;29.50;78.00;;;;;;4962467;28;20510;-75
2021/09/10 11:40:37;;;;;;;4.10;3.75;;;29.30;77.50;;;;;;4959136;28;20049;-75
2021/09/10 11:43:13;;;;;;;4.75;3.97;;;29.60;77.80;;;;;;4959991;28;20291;-74
2021/09/10 11:45:47;;;;;;;4.70;4.10;;;29.90;77.00;;;;;;4962531;28;20062;-75
2021/09/10 11:48:20;;;;;;;3.83;3.53;;;29.90;76.30;;;;;;4965294;28;20046;-75
2021/09/10 11:50:52;;;;;;;4.80;4.28;;;29.80;76.60;;;;;;4962667;28;20622;-75
2021/09/10 11:53:24;;;;;;;4.22;3.85;;;29.70;76.90;;;;;;4965439;28;20073;-75
2021/09/10 11:55:59;;;;;;;6.40;4.28;;;29.80;77.80;;;;;;4967735;28;20452;-75
2021/09/10 11:58:39;;;;;;;6.50;4.15;;;29.60;78.00;;;;;;4961037;28;20100;-75
2021/09/10 12:01:23;;;;;;;3.90;3.55;;;29.70;77.70;;;;;;4962301;28;20181;-75
2021/09/10 12:03:55;;;;;;;5.00;4.25;;;30.00;77.20;;;;;;4962548;28;20137;-74
2021/09/10 12:06:26;;;;;;;6.35;4.13;;;30.20;76.60;;;;;;4972957;28;20050;-75
2021/09/10 12:09:15;;;;;;;6.05;4.43;;;30.20;76.20;;;;;;4960941;28;20058;-75
2021/09/10 12:12:07;;;;;;;5.03;4.03;;;30.00;76.90;;;;;;4961749;28;20073;-74
2021/09/10 12:14:41;;;;;;;6.85;4.10;;;30.10;76.90;;;;;;4965394;28;20047;-75
2021/09/10 12:17:21;;;;;;;7.10;4.50;;;30.10;76.60;;;;;;4992923;28;20039;-75
2021/09/10 12:20:00;;;;;;;4.55;3.95;;;29.90;76.70;;;;;;4946457;28;20571;-75
2021/09/10 12:22:53;;;;;;;5.90;4.35;;;29.90;76.30;;;;;;4959260;28;20047;-74
2021/09/10 12:25:41;;;;;;;5.35;4.30;;;29.90;77.00;;;;;;4957840;28;20522;-75
2021/09/10 12:28:19;;;;;;;4.82;4.43;;;29.80;76.10;;;;;;4957693;28;20059;-75
2021/09/10 12:30:50;;;;;;;5.15;4.65;;;30.00;76.40;;;;;;4972065;28;20107;-75
2021/09/10 12:33:23;;;;;;;4.60;4.18;;;30.10;75.90;;;;;;4962757;28;20497;-75
2021/09/10 12:35:53;;;;;;;5.07;4.25;;;30.10;76.30;;;;;;4957195;28;20071;-75
2021/09/10 12:38:28;;;;;;;4.35;3.88;;;30.00;75.10;;;;;;4948293;28;20672;-75
2021/09/10 12:40:58;;;;;;;4.05;3.75;;;30.20;75.40;;;;;;4960136;28;20042;-74
2021/09/10 12:43:27;;;;;;;5.03;4.10;;;30.40;75.10;;;;;;4957748;28;20055;-75
2021/09/10 12:45:57;;;;;;;4.45;4.10;;;30.40;74.80;;;;;;4957435;28;20043;-75
2021/09/10 12:48:27;;;;;;;5.20;4.28;;;30.30;74.40;;;;;;4963911;28;20065;-75
2021/09/10 12:50:56;;;;;;;4.03;3.72;;;30.20;74.10;;;;;;4961230;28;20058;-75
2021/09/10 12:53:25;;;;;;;5.22;4.15;;;30.20;74.70;;;;;;4962130;28;20052;-75
2021/09/10 12:55:55;;;;;;;5.57;4.85;;;30.20;75.70;;;;;;4961378;28;20045;-75
2021/09/10 12:58:32;;;;;;;5.22;4.45;;;30.30;75.00;;;;;;4955784;28;20038;-75
2021/09/10 13:01:03;;;;;;;4.60;4.20;;;30.60;74.60;;;;;;4960862;28;20628;-74
2021/09/10 13:03:34;;;;;;;6.70;4.45;;;30.70;74.40;;;;;;4958337;28;20046;-75